Time;durP1;ratioP1;P1;durP2;ratioP2;P2;SDS_P1;SDS_P2;PMS_P1;PMS_P2;Temp;Humidity;BMP_temperature;BMP_pressure;BME280_temperature;BME280_humidity;BME280_pressure;Samples;Min_cycle;Max_cycle;Signal;HPM_P1;HPM_P2
2022/04/28 00:01:07;;;;;;;3.30;2.53;;;;;;;18.26;53.95;101364.06;5127898;28;20407;-64
2022/04/28 00:03:34;;;;;;;2.60;2.40;;;;;;;18.22;53.99;101356.63;5127588;27;20417;-64
2022/04/28 00:06:01;;;;;;;3.28;2.58;;;;;;;18.44;53.45;101362.59;5127871;28;20407;-63
2022/04/28 00:08:28;;;;;;;3.75;2.75;;;;;;;18.47;53.17;101365.69;5127543;28;20413;-63
2022/04/28 00:10:56;;;;;;;2.92;2.72;;;;;;;18.50;52.81;101372.53;5127493;28;20407;-63
2022/04/28 00:13:23;;;;;;;3.20;3.00;;;;;;;18.17;53.48;101370.66;5127336;28;20427;-64
2022/04/28 00:16:59;;;;;;;3.10;2.90;;;;;;;17.89;53.88;101373.47;5127252;27;20456;-63
2022/04/28 00:21:48;;;;;;;2.90;2.70;;;;;;;17.94;53.92;101385.25;5127230;27;20451;-61
2022/04/28 00:24:15;;;;;;;2.97;2.70;;;;;;;17.86;53.80;101381.91;5127794;28;20428;-61
2022/04/28 00:26:42;;;;;;;3.65;2.45;;;;;;;17.83;53.94;101385.81;5127675;28;20407;-61
2022/04/28 00:29:09;;;;;;;2.50;2.30;;;;;;;17.63;54.17;101384.91;5127615;28;20900;-62
2022/04/28 00:31:36;;;;;;;2.90;2.20;;;;;;;17.51;54.18;101396.19;5127946;27;20421;-62
2022/04/28 00:34:03;;;;;;;2.40;1.90;;;;;;;17.59;53.70;101397.88;5128129;28;20407;-61
2022/04/28 00:36:30;;;;;;;2.00;1.90;;;;;;;17.53;53.87;101393.31;5127499;28;20403;-61
2022/04/28 00:38:59;;;;;;;1.80;1.60;;;;;;;17.26;53.84;101397.72;5127495;28;20411;-62
2022/04/28 00:41:25;;;;;;;1.75;1.60;;;;;;;17.44;53.29;101399.88;5127219;28;20437;-61
2022/04/28 00:43:54;;;;;;;1.70;1.60;;;;;;;17.46;53.27;101408.56;5127418;28;20784;-62
2022/04/28 00:46:22;;;;;;;1.60;1.50;;;;;;;17.30;53.42;101391.75;5127312;28;20407;-62
2022/04/28 00:52:09;;;;;;;1.95;1.30;;;;;;;17.29;53.46;101389.31;5106706;27;20900;-63
2022/04/28 00:54:36;;;;;;;1.43;1.30;;;;;;;17.24;53.15;101394.44;5107288;28;20872;-63
2022/04/28 00:57:04;;;;;;;1.33;1.10;;;;;;;16.90;53.60;101401.41;5107516;28;20412;-64
2022/04/28 00:59:31;;;;;;;1.70;1.10;;;;;;;17.00;53.32;101408.06;5107490;28;20412;-64
2022/04/28 01:01:58;;;;;;;2.40;1.25;;;;;;;17.18;52.91;101406.75;5107456;28;20414;-63
2022/04/28 01:05:47;;;;;;;1.23;1.13;;;;;;;17.50;51.82;101399.06;5086255;28;20923;-63
2022/04/28 01:08:14;;;;;;;1.10;1.00;;;;;;;17.35;51.79;101400.03;5087264;28;20417;-63
2022/04/28 01:10:41;;;;;;;2.70;1.15;;;;;;;17.47;51.43;101404.84;5087170;28;20414;-64
2022/04/28 01:13:08;;;;;;;1.35;0.90;;;;;;;17.23;51.83;101408.84;5086857;28;20444;-64
2022/04/28 01:17:38;;;;;;;0.85;0.85;;;;;;;17.15;51.51;101399.09;5127051;27;20452;-63
2022/04/28 01:21:39;;;;;;;1.50;0.80;;;;;;;17.23;50.63;101398.13;5127213;27;20448;-64
2022/04/28 01:24:07;;;;;;;1.42;0.70;;;;;;;16.76;51.30;101406.66;5128078;28;20410;-64
2022/04/28 01:26:36;;;;;;;1.20;0.80;;;;;;;16.63;51.28;101412.69;5128045;28;20414;-64
2022/04/28 01:29:03;;;;;;;2.70;0.75;;;;;;;16.71;50.63;101408.22;5128103;28;20409;-63
2022/04/28 01:31:30;;;;;;;1.45;0.60;;;;;;;16.70;50.49;101418.09;5127733;28;20407;-63
2022/04/28 01:33:57;;;;;;;1.83;0.68;;;;;;;16.80;50.30;101415.13;5127849;28;20413;-64
2022/04/28 01:37:43;;;;;;;1.73;0.60;;;;;;;16.81;50.12;101422.94;5106821;27;20458;-63
2022/04/28 01:40:12;;;;;;;1.08;0.55;;;;;;;16.67;50.67;101420.34;5107342;28;20412;-64
2022/04/28 01:42:40;;;;;;;0.85;0.60;;;;;;;16.61;51.06;101429.97;5107240;28;20917;-63
2022/04/28 01:45:08;;;;;;;0.98;0.60;;;;;;;16.81;50.87;101433.63;5107497;28;20412;-63
2022/04/28 01:47:35;;;;;;;0.73;0.60;;;;;;;16.85;51.30;101419.91;5107165;28;20917;-64
2022/04/28 01:50:04;;;;;;;1.75;0.60;;;;;;;16.89;51.34;101413.13;5107457;28;20442;-64
2022/04/28 01:55:16;;;;;;;3.42;0.60;;;;;;;16.42;53.11;101424.25;5107093;28;20970;-63
2022/04/28 01:57:43;;;;;;;1.65;0.60;;;;;;;16.62;53.06;101419.09;5106956;28;20785;-64
2022/04/28 02:00:12;;;;;;;1.10;0.50;;;;;;;16.38;53.59;101414.94;5107263;28;20405;-64
2022/04/28 02:03:12;;;;;;;1.80;0.57;;;;;;;16.51;53.23;101411.59;5127266;27;20794;-63
2022/04/28 02:05:39;;;;;;;1.70;0.60;;;;;;;16.46;53.59;101411.31;5127762;28;20406;-63
2022/04/28 02:09:56;;;;;;;1.52;0.50;;;;;;;16.50;53.17;101414.44;5126601;27;20452;-63
2022/04/28 02:13:04;;;;;;;1.30;0.50;;;;;;;16.35;53.49;101403.78;5127247;27;20456;-64
2022/04/28 02:16:24;;;;;;;0.50;0.50;;;;;;;16.28;53.18;101411.78;5127101;27;20472;-63
2022/04/28 02:18:51;;;;;;;0.73;0.50;;;;;;;16.52;52.63;101399.84;5128093;28;20413;-63
2022/04/28 02:21:18;;;;;;;0.90;0.43;;;;;;;16.47;51.72;101401.44;5127733;27;20500;-64
2022/04/28 02:23:44;;;;;;;1.13;0.50;;;;;;;15.99;53.24;101399.31;5127635;28;21009;-63
2022/04/28 02:26:11;;;;;;;1.23;0.60;;;;;;;16.08;52.97;101406.22;5127816;28;20414;-64
2022/04/28 02:28:38;;;;;;;0.90;0.73;;;;;;;16.45;52.20;101401.63;5127702;27;20407;-64
2022/04/28 02:31:05;;;;;;;1.02;0.50;;;;;;;16.55;51.86;101410.16;5127464;27;20915;-64
2022/04/28 02:33:34;;;;;;;0.80;0.50;;;;;;;16.04;52.41;101413.78;5127406;27;20930;-63
2022/04/28 02:36:01;;;;;;;0.82;0.60;;;;;;;15.87;53.34;101423.03;5127225;28;20993;-64
2022/04/28 02:39:27;;;;;;;0.52;0.50;;;;;;;16.09;52.47;101431.09;5126533;27;20822;-63
2022/04/28 02:41:54;;;;;;;2.05;0.60;;;;;;;15.85;52.51;101433.91;5127642;28;20445;-63
2022/04/28 02:44:21;;;;;;;1.70;0.90;;;;;;;16.07;52.52;101427.78;5127911;28;20406;-63
2022/04/28 02:46:48;;;;;;;1.20;0.60;;;;;;;15.80;52.67;101422.94;5127878;27;20417;-63
2022/04/28 02:49:15;;;;;;;2.97;0.70;;;;;;;16.18;51.65;101433.47;5127833;27;20418;-63
2022/04/28 02:51:42;;;;;;;1.23;0.50;;;;;;;16.04;51.97;101440.53;5127398;27;20788;-63
2022/04/28 02:54:10;;;;;;;1.40;0.80;;;;;;;16.31;51.54;101434.63;5127404;27;20766;-63
2022/04/28 02:59:37;;;;;;;0.55;0.50;;;;;;;16.09;50.89;101449.81;5127020;27;20464;-64
2022/04/28 03:02:04;;;;;;;1.30;0.63;;;;;;;16.03;50.70;101452.22;5127573;28;20409;-64
2022/04/28 03:04:31;;;;;;;0.73;0.70;;;;;;;15.95;51.05;101457.69;5127556;27;20784;-63
2022/04/28 03:12:45;;;;;;;2.08;1.00;;;;;;;15.88;50.92;101447.91;5127661;28;20410;-63
2022/04/28 03:15:13;;;;;;;1.90;0.80;;;;;;;15.93;50.26;101448.19;5127566;28;20411;-64
2022/04/28 03:17:40;;;;;;;1.52;0.73;;;;;;;16.01;50.14;101456.13;5127415;28;20426;-63
2022/04/28 03:20:08;;;;;;;1.40;0.70;;;;;;;16.23;49.77;101463.16;5127427;28;20411;-65
2022/04/28 03:24:11;;;;;;;2.00;0.70;;;;;;;16.28;49.24;101469.78;5127181;27;20980;-63
2022/04/28 03:26:39;;;;;;;1.77;0.70;;;;;;;16.33;49.32;101462.00;5128106;28;20411;-63
2022/04/28 03:29:06;;;;;;;1.75;0.75;;;;;;;16.13;49.76;101469.81;5128012;28;20407;-62
2022/04/28 03:31:33;;;;;;;1.70;0.80;;;;;;;15.85;49.99;101486.56;5127664;28;20417;-63
2022/04/28 03:33:59;;;;;;;1.27;0.70;;;;;;;16.18;49.39;101476.25;5127936;28;20411;-63
2022/04/28 03:39:12;;;;;;;1.25;0.85;;;;;;;15.81;50.00;101487.94;5127655;28;20508;-63
2022/04/28 03:41:40;;;;;;;2.40;0.75;;;;;;;15.76;50.41;101487.69;5127491;28;20911;-64
2022/04/28 03:44:07;;;;;;;2.17;0.80;;;;;;;15.92;49.82;101491.97;5127376;28;20778;-63
2022/04/28 03:46:33;;;;;;;1.55;0.80;;;;;;;16.01;49.91;101485.53;5127454;28;20417;-63
2022/04/28 03:49:00;;;;;;;1.55;0.73;;;;;;;16.22;49.22;101490.09;5127428;27;20900;-63
2022/04/28 03:51:57;;;;;;;3.25;0.90;;;;;;;16.35;49.20;101495.59;5127384;27;20456;-63
2022/04/28 03:54:24;;;;;;;0.77;0.70;;;;;;;16.36;48.94;101501.78;5127744;28;20915;-64
2022/04/28 03:56:51;;;;;;;1.40;0.90;;;;;;;16.35;48.87;101506.31;5127742;28;20407;-63
2022/04/28 03:59:19;;;;;;;2.20;0.90;;;;;;;16.14;49.55;101515.13;5127586;28;20461;-64
2022/04/28 04:01:45;;;;;;;1.48;0.90;;;;;;;16.05;50.09;101518.91;5127532;28;20904;-63
2022/04/28 04:04:12;;;;;;;2.80;0.90;;;;;;;16.19;49.84;101515.38;5127932;27;20409;-62
2022/04/28 04:06:39;;;;;;;1.55;1.00;;;;;;;16.48;48.99;101515.50;5127460;27;20410;-62
2022/04/28 04:09:08;;;;;;;2.07;1.10;;;;;;;16.52;48.66;101520.28;5127422;28;20816;-62
2022/04/28 04:11:35;;;;;;;1.58;0.90;;;;;;;16.41;48.66;101518.09;5127307;28;20437;-62
2022/04/28 04:14:01;;;;;;;3.00;1.10;;;;;;;16.61;48.00;101513.78;5127707;28;21279;-62
2022/04/28 04:16:28;;;;;;;2.47;1.08;;;;;;;16.66;48.57;101515.09;5127282;28;20407;-63
2022/04/28 04:18:55;;;;;;;1.05;0.90;;;;;;;16.69;48.12;101522.72;5127522;28;20420;-63
2022/04/28 04:21:22;;;;;;;2.85;1.10;;;;;;;16.60;48.13;101525.53;5127447;28;20504;-62
2022/04/28 04:23:49;;;;;;;2.03;0.90;;;;;;;16.65;47.84;101524.94;5127087;28;20411;-62
2022/04/28 04:26:17;;;;;;;1.50;0.97;;;;;;;16.50;48.18;101519.63;5127119;27;20791;-62
2022/04/28 04:28:44;;;;;;;2.47;1.20;;;;;;;16.45;48.30;101527.41;5126965;28;20920;-62
2022/04/28 04:33:56;;;;;;;3.45;1.60;;;;;;;16.41;48.72;101524.28;5127007;28;20405;-62
2022/04/28 04:36:23;;;;;;;3.35;1.42;;;;;;;16.49;48.25;101520.66;5127295;28;20407;-62
2022/04/28 04:38:49;;;;;;;4.80;1.92;;;;;;;16.19;49.17;101522.59;5126809;28;20417;-62
2022/04/28 04:41:18;;;;;;;2.45;1.30;;;;;;;16.36;48.35;101525.84;5126757;28;20421;-62
2022/04/28 04:43:45;;;;;;;1.65;1.10;;;;;;;16.05;49.22;101529.59;5126724;28;20856;-62
2022/04/28 04:46:12;;;;;;;4.10;1.70;;;;;;;16.00;49.52;101529.34;5126714;27;20407;-63
2022/04/28 04:48:38;;;;;;;4.05;1.40;;;;;;;16.11;49.36;101533.38;5126631;28;20403;-62
2022/04/28 04:51:05;;;;;;;2.78;1.27;;;;;;;16.08;49.03;101525.72;5126882;28;20444;-62
2022/04/28 04:53:32;;;;;;;4.43;1.45;;;;;;;16.09;49.32;101527.38;5126511;28;20411;-62
2022/04/28 04:55:59;;;;;;;5.53;1.35;;;;;;;16.19;49.00;101526.09;5126760;27;20409;-62
2022/04/28 04:58:46;;;;;;;3.70;1.30;;;;;;;16.34;49.03;101531.41;5086265;28;20452;-63
2022/04/28 05:01:13;;;;;;;7.15;1.50;;;;;;;16.38;49.07;101529.19;5086808;28;20911;-63
2022/04/28 05:03:41;;;;;;;5.03;1.77;;;;;;;16.19;49.08;101535.97;5087201;28;20504;-64
2022/04/28 05:06:08;;;;;;;6.30;1.83;;;;;;;16.16;49.69;101531.81;5087053;28;20422;-64
2022/04/28 05:08:35;;;;;;;5.18;2.25;;;;;;;16.32;49.29;101527.25;5087295;28;20418;-64
2022/04/28 05:11:02;;;;;;;5.00;2.13;;;;;;;16.33;49.00;101528.91;5086669;28;20870;-63
2022/04/28 05:13:29;;;;;;;5.93;2.47;;;;;;;16.24;49.24;101531.72;5086950;28;20410;-63
2022/04/28 05:18:09;;;;;;;6.68;2.38;;;;;;;16.37;49.11;101536.38;5106582;27;20400;-64
2022/04/28 05:20:36;;;;;;;5.83;2.30;;;;;;;16.42;49.12;101550.03;5107311;28;20412;-63
2022/04/28 05:23:03;;;;;;;5.63;2.90;;;;;;;16.21;49.77;101548.13;5107528;28;20416;-64
2022/04/28 05:25:30;;;;;;;3.05;2.30;;;;;;;16.28;49.31;101552.72;5107151;28;20412;-63
2022/04/28 05:27:57;;;;;;;8.13;3.60;;;;;;;16.21;49.96;101550.78;5107352;28;20436;-63
2022/04/28 05:30:24;;;;;;;3.78;2.30;;;;;;;15.90;50.55;101559.03;5106967;28;20419;-63
2022/04/28 05:32:51;;;;;;;4.10;2.60;;;;;;;16.05;50.37;101554.50;5107228;28;20422;-64
2022/04/28 05:35:20;;;;;;;4.57;2.43;;;;;;;16.25;50.07;101560.09;5106963;28;20404;-64
2022/04/28 05:37:47;;;;;;;5.93;3.28;;;;;;;16.06;50.34;101552.66;5106793;28;20431;-64
2022/04/28 05:40:15;;;;;;;6.75;3.33;;;;;;;16.07;50.46;101564.19;5107173;28;20409;-63
2022/04/28 05:45:46;;;;;;;7.40;3.92;;;;;;;15.84;50.70;101552.56;5106854;28;20781;-65
2022/04/28 05:48:14;;;;;;;6.60;3.75;;;;;;;15.97;50.49;101556.44;5106652;28;20412;-64
2022/04/28 05:50:43;;;;;;;5.82;3.85;;;;;;;16.26;49.86;101566.31;5106634;28;20832;-64
2022/04/28 05:53:10;;;;;;;7.43;4.22;;;;;;;16.46;49.86;101563.00;5106885;28;20416;-63
2022/04/28 05:55:38;;;;;;;6.63;4.30;;;;;;;16.38;49.96;101570.13;5107155;28;20413;-64
2022/04/28 05:58:05;;;;;;;7.00;4.00;;;;;;;16.84;48.90;101557.50;5106724;28;20499;-64
2022/04/28 06:00:35;;;;;;;5.95;4.00;;;;;;;16.86;49.03;101564.31;5106429;28;20924;-64
2022/04/28 06:03:02;;;;;;;8.45;4.70;;;;;;;16.88;48.92;101559.59;5106415;28;20783;-63
2022/04/28 06:05:29;;;;;;;7.68;4.40;;;;;;;16.91;48.39;101553.88;5106655;28;20408;-63
2022/04/28 06:07:57;;;;;;;5.10;3.95;;;;;;;17.04;48.15;101549.66;5106303;28;20404;-63
2022/04/28 06:10:24;;;;;;;4.20;3.80;;;;;;;17.71;46.59;101546.44;5106429;28;20492;-63
2022/04/28 06:12:51;;;;;;;4.13;3.30;;;;;;;17.97;45.95;101561.09;5106564;28;20412;-63
2022/04/28 06:15:18;;;;;;;10.38;4.55;;;;;;;18.29;45.67;101556.91;5106222;28;20924;-65
2022/04/28 06:17:45;;;;;;;7.47;4.07;;;;;;;18.61;44.71;101556.38;5106360;28;20435;-63
2022/04/28 06:20:12;;;;;;;5.72;3.30;;;;;;;18.73;44.40;101552.88;5106073;28;20411;-63
2022/04/28 06:22:39;;;;;;;4.60;3.13;;;;;;;18.76;44.27;101554.31;5106052;28;20496;-64
2022/04/28 06:25:09;;;;;;;4.38;3.00;;;;;;;18.91;44.21;101555.00;5106281;28;20435;-63
2022/04/28 06:27:36;;;;;;;3.70;3.30;;;;;;;19.00;44.00;101561.03;5103032;28;20902;-64
2022/04/28 06:30:03;;;;;;;4.40;3.22;;;;;;;18.98;44.36;101563.09;5092353;28;20492;-62
2022/04/28 06:32:30;;;;;;;8.18;3.22;;;;;;;18.90;44.33;101565.97;5092304;28;20472;-63
2022/04/28 06:34:57;;;;;;;7.68;3.35;;;;;;;18.77;44.53;101557.88;5092441;28;20798;-63
2022/04/28 06:37:24;;;;;;;3.28;2.80;;;;;;;18.83;44.28;101559.75;5092212;28;20435;-64
2022/04/28 06:39:51;;;;;;;5.50;3.05;;;;;;;18.91;44.02;101567.63;5092515;28;20433;-64
2022/04/28 06:42:19;;;;;;;4.88;2.75;;;;;;;19.46;42.87;101567.44;5092424;28;20416;-65
2022/04/28 06:44:47;;;;;;;4.72;2.78;;;;;;;20.67;40.86;101570.63;5092382;28;20405;-63
2022/04/28 06:47:14;;;;;;;7.22;2.78;;;;;;;22.14;38.05;101562.88;5092052;28;20405;-63
2022/04/28 06:49:41;;;;;;;3.15;2.30;;;;;;;23.21;36.00;101560.59;5091913;28;20482;-64
2022/04/28 06:52:08;;;;;;;4.87;2.20;;;;;;;24.10;34.75;101563.16;5092256;28;20406;-64
2022/04/28 06:54:35;;;;;;;4.40;2.50;;;;;;;24.74;33.53;101554.06;5091892;28;20903;-62
2022/04/28 06:57:02;;;;;;;4.85;2.55;;;;;;;24.04;34.41;101561.41;5091671;28;20435;-62
2022/04/28 06:59:30;;;;;;;6.00;2.30;;;;;;;25.00;32.84;101568.91;5092020;28;20419;-62
2022/04/28 07:01:57;;;;;;;2.33;2.00;;;;;;;26.31;30.77;101562.09;5091708;28;21213;-61
2022/04/28 07:04:25;;;;;;;3.43;2.33;;;;;;;25.99;30.81;101564.69;5091640;28;20497;-62
2022/04/28 07:06:52;;;;;;;2.97;1.77;;;;;;;27.25;28.92;101565.41;5091883;28;20432;-62
2022/04/28 07:09:19;;;;;;;3.73;1.93;;;;;;;26.78;29.67;101568.84;5091491;28;20404;-63
2022/04/28 07:11:46;;;;;;;2.97;1.90;;;;;;;27.26;29.08;101564.38;5091424;28;20782;-64
2022/04/28 07:14:14;;;;;;;3.28;1.80;;;;;;;26.76;29.34;101562.84;5091402;28;20785;-63
2022/04/28 07:16:42;;;;;;;2.57;2.13;;;;;;;26.49;30.16;101557.38;5091562;28;20432;-63
2022/04/28 07:19:09;;;;;;;4.60;2.23;;;;;;;26.27;29.99;101555.53;5091739;28;20406;-63
2022/04/28 07:21:36;;;;;;;4.88;2.35;;;;;;;26.87;29.28;101567.28;5091281;28;20790;-64
2022/04/28 07:24:03;;;;;;;2.78;2.17;;;;;;;25.97;29.99;101563.31;5091255;28;20427;-63
2022/04/28 07:26:30;;;;;;;3.53;2.43;;;;;;;25.84;29.90;101559.03;5091580;28;20435;-63
2022/04/28 07:28:57;;;;;;;4.22;3.50;;;;;;;25.63;29.36;101568.81;5091240;28;20424;-63
2022/04/28 07:31:24;;;;;;;5.43;3.90;;;;;;;24.35;30.79;101578.28;5091181;28;20401;-63
2022/04/28 07:33:52;;;;;;;6.60;4.50;;;;;;;24.07;31.88;101576.34;5091387;28;20412;-63
2022/04/28 07:36:19;;;;;;;8.65;4.90;;;;;;;24.14;31.46;101577.03;5091160;28;20417;-63
2022/04/28 07:38:46;;;;;;;6.30;4.95;;;;;;;23.73;31.88;101574.25;5090935;28;20916;-63
2022/04/28 07:41:15;;;;;;;6.72;4.93;;;;;;;23.57;32.38;101577.66;5090200;28;20445;-63
2022/04/28 07:43:42;;;;;;;5.13;4.63;;;;;;;23.69;32.18;101569.56;5090922;28;20409;-63
2022/04/28 07:46:10;;;;;;;8.30;6.10;;;;;;;23.52;32.36;101589.22;5091160;28;20424;-64
2022/04/28 07:48:37;;;;;;;6.10;5.50;;;;;;;22.86;33.70;101585.66;5090914;28;20906;-63
2022/04/28 07:51:06;;;;;;;6.47;5.50;;;;;;;22.84;33.35;101582.38;5091072;28;20409;-63
2022/04/28 07:54:28;;;;;;;5.50;4.97;;;;;;;23.18;33.10;101578.13;5086241;28;20402;-64
2022/04/28 07:56:55;;;;;;;7.40;5.10;;;;;;;22.52;33.99;101588.00;5086932;28;20473;-63
2022/04/28 07:59:22;;;;;;;7.53;5.22;;;;;;;22.73;33.34;101586.69;5086864;28;20418;-63
2022/04/28 08:01:49;;;;;;;6.18;5.15;;;;;;;22.77;33.10;101587.06;5087378;28;20438;-63
2022/04/28 08:04:16;;;;;;;8.15;5.60;;;;;;;22.87;32.69;101590.84;5087135;28;20410;-63
2022/04/28 08:06:43;;;;;;;10.02;5.75;;;;;;;22.97;32.59;101590.28;5087027;28;20479;-63
2022/04/28 08:09:10;;;;;;;7.53;5.40;;;;;;;22.93;32.33;101590.97;5087031;28;20834;-63
2022/04/28 08:11:41;;;;;;;6.47;5.28;;;;;;;23.11;32.16;101595.53;5086518;28;20441;-64
2022/04/28 08:14:09;;;;;;;6.05;5.45;;;;;;;23.25;31.68;101596.97;5086464;28;20422;-63
2022/04/28 08:16:36;;;;;;;10.70;5.57;;;;;;;22.89;31.96;101594.13;5086818;28;20413;-63
2022/04/28 08:19:03;;;;;;;6.68;5.10;;;;;;;22.84;32.08;101601.28;5086736;28;20926;-64
2022/04/28 08:21:30;;;;;;;9.63;5.13;;;;;;;22.06;32.86;101598.31;5086451;28;20915;-64
2022/04/28 08:23:57;;;;;;;7.43;5.10;;;;;;;22.01;33.04;101600.03;5086966;28;20414;-63
2022/04/28 08:26:24;;;;;;;5.63;4.97;;;;;;;21.70;33.35;101602.63;5086417;28;20410;-63
2022/04/28 08:28:53;;;;;;;7.45;4.90;;;;;;;22.18;32.79;101605.66;5086779;28;20480;-63
2022/04/28 08:31:20;;;;;;;7.25;5.40;;;;;;;21.76;33.69;101604.44;5086508;28;20834;-64
2022/04/28 08:33:47;;;;;;;5.82;5.13;;;;;;;22.07;32.98;101604.53;5086002;28;20465;-63
2022/04/28 08:36:15;;;;;;;8.73;5.40;;;;;;;21.43;34.04;101610.13;5086412;28;20520;-64
2022/04/28 08:38:43;;;;;;;6.30;5.53;;;;;;;21.73;33.70;101601.34;5086116;28;20907;-64
2022/04/28 08:41:13;;;;;;;5.93;5.30;;;;;;;22.02;33.43;101607.91;5086690;28;20491;-63
2022/04/28 08:43:42;;;;;;;6.25;5.57;;;;;;;22.58;33.03;101610.59;5085959;28;20418;-63
2022/04/28 08:48:57;;;;;;;7.90;5.85;;;;;;;22.57;32.85;101603.56;5085956;28;20405;-63
2022/04/28 08:51:26;;;;;;;6.43;5.73;;;;;;;22.11;33.84;101603.88;5086069;28;20417;-65
2022/04/28 08:53:54;;;;;;;6.80;6.10;;;;;;;22.18;33.79;101603.78;5101683;28;20436;-64
2022/04/28 08:56:24;;;;;;;8.00;5.57;;;;;;;22.56;32.74;101601.88;5105828;28;20428;-64
2022/04/28 08:58:52;;;;;;;6.40;5.47;;;;;;;22.77;31.99;101595.16;5106254;28;20437;-64
2022/04/28 09:01:25;;;;;;;7.38;5.28;;;;;;;22.14;32.64;101597.19;5106546;28;20511;-64
2022/04/28 09:03:52;;;;;;;6.32;5.75;;;;;;;21.74;33.76;101603.81;5103580;28;20417;-64
2022/04/28 09:06:22;;;;;;;6.85;5.88;;;;;;;21.94;33.48;101592.00;5092631;28;20439;-64
2022/04/28 09:10:49;;;;;;;6.07;5.47;;;;;;;21.74;33.05;101603.81;5115056;27;2089216;-62
2022/04/28 09:16:01;;;;;;;7.20;5.65;;;;;;;21.98;33.15;101597.78;5169353;27;20914;-61
2022/04/28 09:18:28;;;;;;;9.47;6.00;;;;;;;22.04;33.19;101595.00;5169112;27;20403;-64
2022/04/28 09:20:56;;;;;;;7.40;6.18;;;;;;;22.02;33.05;101593.56;5169185;27;20490;-63
2022/04/28 09:23:23;;;;;;;29.23;26.17;;;;;;;22.06;33.28;101594.81;5168849;27;20935;-62
2022/04/28 09:25:53;;;;;;;8.70;7.13;;;;;;;21.89;33.53;101589.16;5169057;27;20411;-62
2022/04/28 09:28:20;;;;;;;7.73;5.90;;;;;;;21.70;33.59;101597.22;5168872;27;20404;-62
2022/04/28 09:30:49;;;;;;;8.67;7.10;;;;;;;21.88;33.03;101598.31;5168752;27;20860;-62
2022/04/28 09:33:18;;;;;;;7.00;5.80;;;;;;;22.26;32.16;101586.47;5169136;27;20400;-62
2022/04/28 09:35:47;;;;;;;7.47;6.40;;;;;;;21.82;32.96;101599.19;5169121;27;20534;-62
2022/04/28 09:38:14;;;;;;;7.03;6.38;;;;;;;21.71;33.59;101593.47;5168995;27;20412;-62
2022/04/28 09:43:30;;;;;;;8.27;7.40;;;;;;;22.04;33.31;101588.78;5168658;27;20476;-62
2022/04/28 09:45:58;;;;;;;9.50;7.13;;;;;;;21.82;33.58;101577.59;5168805;27;20758;-62
2022/04/28 09:48:30;;;;;;;8.95;7.20;;;;;;;22.07;33.35;101585.63;5168686;27;20807;-64
2022/04/28 09:51:03;;;;;;;9.07;6.77;;;;;;;22.01;32.43;101586.53;5168285;27;20494;-63
2022/04/28 09:53:32;;;;;;;7.25;6.03;;;;;;;21.84;31.92;101576.34;5168368;27;20460;-62
2022/04/28 09:56:01;;;;;;;7.00;6.13;;;;;;;21.61;32.30;101578.84;5168515;27;20403;-63
2022/04/28 09:58:30;;;;;;;6.72;6.13;;;;;;;21.73;32.07;101571.66;5168671;27;20399;-62
2022/04/28 10:01:01;;;;;;;9.27;6.70;;;;;;;21.55;32.04;101580.56;5168229;27;20409;-63
2022/04/28 10:03:30;;;;;;;7.13;6.43;;;;;;;21.58;32.13;101582.81;5168151;27;20412;-63
2022/04/28 10:05:58;;;;;;;7.70;6.45;;;;;;;21.25;32.51;101583.06;5168214;27;20403;-63
2022/04/28 10:08:26;;;;;;;7.28;6.30;;;;;;;21.06;32.46;101582.19;5168635;27;20462;-64
2022/04/28 10:10:56;;;;;;;7.60;6.00;;;;;;;21.07;32.43;101573.03;5168355;27;20431;-63
2022/04/28 10:13:24;;;;;;;7.10;6.50;;;;;;;21.12;32.70;101576.75;5167925;27;20487;-63
2022/04/28 10:15:57;;;;;;;7.85;7.03;;;;;;;20.88;33.45;101578.34;5168227;27;20495;-63
2022/04/28 10:18:29;;;;;;;7.07;6.45;;;;;;;20.89;33.56;101576.50;5167776;27;20408;-63
2022/04/28 10:21:00;;;;;;;7.70;6.88;;;;;;;21.13;32.93;101561.41;5161184;27;20614;-63
2022/04/28 10:35:06;;;;;;;6.90;6.20;;;;;;;21.37;32.34;101557.03;5133679;27;20403;-62
2022/04/28 10:37:34;;;;;;;6.90;6.30;;;;;;;21.54;31.89;101560.84;5153616;27;20452;-63
2022/04/28 10:40:01;;;;;;;8.07;6.80;;;;;;;21.54;31.63;101560.84;5153846;27;20412;-63
2022/04/28 10:42:56;;;;;;;7.15;6.30;;;;;;;21.45;31.42;101561.34;5153868;27;20781;-63
2022/04/28 10:45:25;;;;;;;10.40;6.40;;;;;;;21.51;31.26;101561.28;5153837;27;20490;-62
2022/04/28 10:48:21;;;;;;;6.70;6.10;;;;;;;21.29;31.42;101554.63;5153455;27;20460;-62
2022/04/28 10:51:11;;;;;;;7.72;5.45;;;;;;;20.99;31.06;101555.28;5153320;27;20481;-62
2022/04/28 10:53:58;;;;;;;6.30;5.70;;;;;;;21.18;30.86;101558.88;5153355;27;20400;-63
2022/04/28 10:56:26;;;;;;;6.97;5.60;;;;;;;21.49;30.68;101555.28;5153346;27;20492;-62
2022/04/28 10:58:57;;;;;;;6.00;5.40;;;;;;;21.34;30.92;101549.41;5153557;27;20911;-63
2022/04/28 11:01:29;;;;;;;6.25;5.28;;;;;;;21.29;31.14;101557.34;5153494;27;20464;-62
2022/04/28 11:04:00;;;;;;;7.07;6.00;;;;;;;21.34;31.32;101558.31;5153167;27;20411;-63
2022/04/28 11:06:31;;;;;;;6.43;5.03;;;;;;;21.12;31.07;101568.66;5153473;27;20795;-62
2022/04/28 11:09:00;;;;;;;5.82;5.22;;;;;;;21.14;31.24;101563.88;5153185;27;21625;-62
2022/04/28 11:11:30;;;;;;;5.95;5.30;;;;;;;21.42;31.12;101573.38;5152909;27;20408;-63
2022/04/28 11:13:58;;;;;;;10.32;6.10;;;;;;;21.23;31.30;101571.69;5152976;27;20415;-63
2022/04/28 11:16:26;;;;;;;5.50;4.93;;;;;;;21.01;31.27;101561.25;5153159;27;20487;-64
2022/04/28 11:18:54;;;;;;;8.27;5.63;;;;;;;21.06;31.59;101564.13;5153107;27;20404;-64
2022/04/28 11:21:23;;;;;;;6.43;5.10;;;;;;;21.05;31.41;101573.28;5152683;27;20418;-63
2022/04/28 11:23:51;;;;;;;5.20;4.70;;;;;;;20.98;31.45;101583.28;5153128;27;20472;-64
2022/04/28 11:26:20;;;;;;;4.50;4.10;;;;;;;21.23;30.53;101572.53;5152987;27;20782;-63
2022/04/28 11:28:48;;;;;;;5.45;4.93;;;;;;;21.14;31.23;101565.72;5152980;27;20408;-63
2022/04/28 11:31:18;;;;;;;5.03;4.45;;;;;;;21.35;30.74;101556.44;5152493;27;20428;-65
2022/04/28 11:33:48;;;;;;;4.85;4.45;;;;;;;21.51;30.36;101561.28;5151804;27;20822;-63
2022/04/28 11:36:16;;;;;;;5.82;4.30;;;;;;;21.18;31.28;101569.66;5152669;27;20440;-63
2022/04/28 11:38:52;;;;;;;7.30;4.77;;;;;;;21.11;30.97;101567.00;5152720;27;20404;-64
2022/04/28 11:41:24;;;;;;;5.47;4.60;;;;;;;21.37;30.89;101548.94;5152713;27;20488;-64
2022/04/28 11:43:52;;;;;;;7.00;5.37;;;;;;;21.36;30.79;101550.81;5152549;27;20452;-64
2022/04/28 11:46:19;;;;;;;5.27;4.47;;;;;;;21.46;30.68;101553.03;5152705;27;20409;-64
2022/04/28 11:49:33;;;;;;;5.03;4.28;;;;;;;21.41;30.79;101552.88;5086118;28;20927;-62
2022/04/28 11:52:00;;;;;;;4.78;4.20;;;;;;;21.12;30.61;101551.66;5086806;28;20434;-62
2022/04/28 11:54:28;;;;;;;5.15;4.65;;;;;;;21.64;30.35;101549.53;5086784;28;20501;-62
2022/04/28 11:57:09;;;;;;;5.00;4.43;;;;;;;21.57;30.88;101543.38;5086764;28;20417;-63
2022/04/28 11:59:37;;;;;;;5.32;4.50;;;;;;;21.71;30.53;101550.28;5087151;28;20410;-63
2022/04/28 12:02:04;;;;;;;5.30;4.47;;;;;;;21.63;30.31;101542.50;5086666;28;20406;-62
2022/04/28 12:04:40;;;;;;;5.15;4.72;;;;;;;21.80;30.05;101542.72;5086945;28;20450;-64
2022/04/28 12:07:19;;;;;;;4.70;4.30;;;;;;;21.93;29.88;101544.44;5086506;28;20437;-63
2022/04/28 12:15:15;;;;;;;6.32;4.47;;;;;;;21.84;30.08;101541.25;5086472;28;20410;-63
2022/04/28 12:20:54;;;;;;;5.10;4.60;;;;;;;22.04;29.46;101521.28;5086412;28;20421;-63
2022/04/28 12:23:31;;;;;;;4.70;4.20;;;;;;;21.86;29.54;101522.97;5086314;28;20496;-62
2022/04/28 12:26:00;;;;;;;4.70;4.30;;;;;;;21.88;29.36;101526.25;5086484;28;20409;-63
2022/04/28 12:30:28;;;;;;;6.22;5.18;;;;;;;21.67;31.70;101526.69;5115085;27;2087290;-62
2022/04/28 12:32:56;;;;;;;5.80;5.30;;;;;;;21.97;31.65;101521.38;5169185;27;20459;-62
2022/04/28 12:37:46;;;;;;;4.97;4.47;;;;;;;22.05;30.38;101526.44;5086190;28;20456;-63
2022/04/28 12:40:18;;;;;;;5.10;4.60;;;;;;;21.73;30.40;101526.63;5086791;28;20471;-63
2022/04/28 12:42:47;;;;;;;4.30;3.90;;;;;;;21.77;30.49;101508.13;5086598;28;20493;-62
2022/04/28 12:45:16;;;;;;;5.47;4.18;;;;;;;22.08;30.34;101511.69;5087036;28;20418;-62
2022/04/28 12:47:44;;;;;;;5.90;4.10;;;;;;;21.71;30.42;101517.91;5087077;28;20425;-62